Encruzilhada do Sul, Brazil
Current Conditions -  °F | °C
As of 3:00 AM on Saturday 20 Dec 2014 (Local Time) from SBPK Reporting Station
Clear Clear  
Wind Chill: 66°   Ceiling: Unl
Heat Index: 66°   Visibility: 6mi
Dew Point: 66°   Wind: 3mph
Humidity: 100%   Direction: 30°NNE
Pressure: 29.71"   Gusts: NA
Location:  30.54°S, 52.52°W
Report Text: SBPK 200500Z 03003KT CAVOK 19/19 Q1006
Loading
Personal Weather Stations






























Interactive Weather Map New forecast layout! Learn more

10-Day Weather Forecast

Advertisements
Track Severe Weather on mobile